Time;durP1;ratioP1;P1;durP2;ratioP2;P2;SDS_P1;SDS_P2;PMS_P1;PMS_P2;Temp;Humidity;BMP_temperature;BMP_pressure;BME280_temperature;BME280_humidity;BME280_pressure;Samples;Min_cycle;Max_cycle;Signal;HPM_P1;HPM_P2
2022/06/16 00:01:55;;;;;;;8.88;3.20;;;;;;;23.34;39.49;98963.28;4437667;32;20121;-78
2022/06/16 00:04:25;;;;;;;9.10;2.80;;;;;;;23.32;39.55;98967.16;4437770;32;20167;-79
2022/06/16 00:06:50;;;;;;;8.93;2.70;;;;;;;23.33;39.67;98966.13;4424865;32;20112;-79
2022/06/16 00:09:16;;;;;;;9.38;3.00;;;;;;;23.29;39.88;98965.63;4437756;32;20145;-79
2022/06/16 00:11:42;;;;;;;8.07;2.87;;;;;;;23.26;40.04;98970.50;4424961;32;20230;-79
2022/06/16 00:14:07;;;;;;;9.10;3.00;;;;;;;23.22;40.14;98958.34;4437703;32;20136;-79
2022/06/16 00:16:33;;;;;;;7.80;3.03;;;;;;;23.21;40.16;98962.88;4424391;32;20085;-79
2022/06/16 00:18:58;;;;;;;7.93;2.70;;;;;;;23.17;40.15;98962.38;4424739;32;20215;-80
2022/06/16 00:21:24;;;;;;;7.90;2.75;;;;;;;23.16;40.20;98958.00;4437454;32;20112;-79
2022/06/16 00:23:49;;;;;;;6.95;2.58;;;;;;;23.10;40.20;98958.66;4455475;32;20364;-79
2022/06/16 00:26:18;;;;;;;7.05;2.65;;;;;;;23.06;40.10;98956.44;4470637;32;20404;-78
2022/06/16 00:28:45;;;;;;;7.93;2.78;;;;;;;22.99;40.29;98952.69;4469520;32;20141;-79
2022/06/16 00:31:12;;;;;;;7.18;2.40;;;;;;;22.74;40.76;98952.53;4470467;32;20085;-79
2022/06/16 00:33:38;;;;;;;5.85;2.35;;;;;;;22.82;40.18;98954.41;4470435;32;20134;-79
2022/06/16 00:36:04;;;;;;;8.50;2.90;;;;;;;22.73;40.15;98950.81;4471282;32;20455;-79
2022/06/16 00:38:29;;;;;;;7.20;2.50;;;;;;;22.65;40.26;98946.22;4471174;32;20093;-79
2022/06/16 00:40:55;;;;;;;8.88;2.92;;;;;;;22.69;40.18;98944.09;4471592;32;20119;-79
2022/06/16 00:43:20;;;;;;;8.15;2.87;;;;;;;22.72;40.34;98941.94;4472647;32;20458;-80
2022/06/16 00:45:54;;;;;;;6.82;2.78;;;;;;;22.64;40.73;98946.38;4472390;32;20085;-79
2022/06/16 00:48:29;;;;;;;6.97;2.85;;;;;;;22.38;41.30;98949.87;4472378;32;20097;-80
2022/06/16 00:51:15;;;;;;;6.65;2.60;;;;;;;22.39;41.40;98940.84;4471205;32;20096;-80
2022/06/16 00:53:41;;;;;;;8.23;3.00;;;;;;;22.47;41.00;98943.59;4471441;32;20131;-80
2022/06/16 00:56:09;;;;;;;8.40;3.42;;;;;;;22.41;41.27;98936.16;4471478;32;20581;-78
2022/06/16 00:58:40;;;;;;;6.62;2.47;;;;;;;22.29;41.50;98940.06;4471199;32;20101;-80
2022/06/16 01:01:07;;;;;;;7.68;2.80;;;;;;;22.42;41.17;98935.16;4471540;32;20096;-79
2022/06/16 01:06:23;;;;;;;8.27;2.78;;;;;;;22.40;41.52;98930.97;4472336;32;20161;-80
2022/06/16 01:08:51;;;;;;;8.27;3.00;;;;;;;22.46;41.49;98925.78;4471188;32;20104;-80
2022/06/16 01:14:58;;;;;;;7.00;2.50;;;;;;;22.50;41.55;98915.59;4407033;32;536274;-80
2022/06/16 01:18:11;;;;;;;8.07;3.00;;;;;;;22.48;41.61;98920.28;4423643;32;20385;-80
2022/06/16 01:20:39;;;;;;;7.30;2.78;;;;;;;22.43;41.88;98923.44;4378365;32;20200;-80
2022/06/16 01:23:10;;;;;;;8.50;2.87;;;;;;;22.44;41.70;98922.41;4378201;32;20172;-80
2022/06/16 01:25:42;;;;;;;8.90;2.78;;;;;;;22.35;41.91;98913.47;4377905;32;20210;-80
2022/06/16 01:28:14;;;;;;;7.32;2.90;;;;;;;22.37;41.76;98916.00;4378053;32;20180;-79
2022/06/16 01:30:56;;;;;;;7.95;2.90;;;;;;;22.26;42.06;98909.03;4377952;32;20811;-79
2022/06/16 01:33:40;;;;;;;7.43;2.90;;;;;;;22.27;42.05;98902.69;4365687;32;20111;-80
2022/06/16 01:36:31;;;;;;;6.18;2.65;;;;;;;22.35;41.97;98899.22;4365511;32;20087;-79
2022/06/16 01:39:13;;;;;;;8.73;2.72;;;;;;;22.29;42.08;98899.81;4375971;32;20099;-79
2022/06/16 01:41:48;;;;;;;6.80;2.70;;;;;;;22.24;42.13;98902.97;4365598;32;20111;-79
2022/06/16 01:44:19;;;;;;;7.20;3.00;;;;;;;22.24;42.19;98902.97;4365784;32;20474;-79
2022/06/16 01:46:45;;;;;;;6.75;2.75;;;;;;;22.25;42.11;98904.69;4377913;32;20230;-80
2022/06/16 01:49:27;;;;;;;7.55;2.78;;;;;;;22.12;42.54;98902.34;4377943;32;20091;-79
2022/06/16 01:51:59;;;;;;;7.70;2.83;;;;;;;22.21;42.43;98905.09;4421094;32;20167;-80
2022/06/16 01:54:31;;;;;;;7.40;2.80;;;;;;;22.17;42.43;98900.06;4408076;32;20128;-79
2022/06/16 01:57:03;;;;;;;7.37;2.83;;;;;;;22.12;42.48;98907.72;4446755;32;20097;-80
2022/06/16 01:59:35;;;;;;;6.47;2.62;;;;;;;22.14;42.45;98905.72;4456402;32;20566;-79
2022/06/16 02:02:05;;;;;;;7.70;3.00;;;;;;;22.18;42.42;98903.59;4455303;32;20438;-80
2022/06/16 02:04:39;;;;;;;8.63;2.90;;;;;;;22.18;42.36;98901.72;4455132;32;20543;-80
2022/06/16 02:07:16;;;;;;;8.30;3.00;;;;;;;22.20;42.31;98896.22;4455467;32;20080;-80
2022/06/16 02:09:44;;;;;;;6.55;2.70;;;;;;;22.26;42.32;98897.47;4455416;32;20103;-80
2022/06/16 02:12:55;;;;;;;7.97;2.80;;;;;;;22.27;42.45;98901.81;4455372;32;20148;-80
2022/06/16 02:15:06;;;;;;;9.93;3.10;;;;;;;22.26;42.53;98894.78;4455179;32;20096;-80
2022/06/16 02:17:32;;;;;;;10.88;2.80;;;;;;;22.26;42.62;98902.84;4462244;32;20083;-80
2022/06/16 02:19:57;;;;;;;8.60;2.80;;;;;;;22.15;42.87;98903.87;4470657;32;20397;-80
2022/06/16 02:22:23;;;;;;;7.62;2.87;;;;;;;22.19;42.81;98895.37;4471718;32;20093;-80
2022/06/16 02:24:48;;;;;;;9.02;2.83;;;;;;;22.20;42.87;98898.91;4470601;32;20100;-80
2022/06/16 02:27:14;;;;;;;10.48;3.08;;;;;;;22.16;42.91;98893.00;4471641;32;20107;-80
2022/06/16 02:29:39;;;;;;;7.72;2.85;;;;;;;22.17;42.94;98900.06;4470354;32;20089;-78
2022/06/16 02:32:31;;;;;;;8.00;2.92;;;;;;;22.08;43.12;98905.47;4470405;32;20120;-80
2022/06/16 02:35:06;;;;;;;7.97;2.80;;;;;;;22.14;43.00;98904.88;4471676;32;20076;-80
2022/06/16 02:37:40;;;;;;;8.43;2.75;;;;;;;22.16;43.04;98903.72;4470389;32;20096;-80
2022/06/16 02:40:24;;;;;;;9.40;3.08;;;;;;;22.19;43.09;98894.53;4471750;32;20081;-79
2022/06/16 02:42:55;;;;;;;7.28;3.05;;;;;;;22.22;43.22;98899.59;4470249;32;20101;-80
2022/06/16 02:45:39;;;;;;;7.90;2.80;;;;;;;22.19;43.30;98895.37;4471586;32;20368;-79
2022/06/16 02:48:07;;;;;;;10.20;3.28;;;;;;;22.17;43.44;98897.38;4471538;32;20379;-80
2022/06/16 02:50:35;;;;;;;7.05;3.12;;;;;;;22.14;43.56;98895.00;4457360;32;20111;-80
2022/06/16 02:53:38;;;;;;;8.27;3.40;;;;;;;22.18;43.58;98898.22;4471519;32;20089;-79
2022/06/16 02:56:21;;;;;;;8.55;3.10;;;;;;;22.05;44.15;98906.66;4470421;32;20100;-79
2022/06/16 02:58:48;;;;;;;7.72;2.92;;;;;;;22.17;43.97;98902.75;4469460;32;20110;-79
2022/06/16 03:01:13;;;;;;;7.37;2.80;;;;;;;22.13;44.06;98908.56;4470018;32;20166;-78
2022/06/16 03:03:39;;;;;;;7.80;2.92;;;;;;;22.20;43.92;98906.94;4471526;32;20181;-79
2022/06/16 03:06:05;;;;;;;7.78;3.20;;;;;;;22.25;43.93;98907.38;4471505;32;20101;-79
2022/06/16 03:08:32;;;;;;;9.52;3.33;;;;;;;22.04;44.27;98906.78;4470309;32;20144;-80
2022/06/16 03:10:58;;;;;;;8.93;2.97;;;;;;;22.26;43.95;98905.53;4470330;32;20368;-79
2022/06/16 03:13:27;;;;;;;9.47;3.27;;;;;;;22.30;44.08;98901.53;4470138;32;20239;-80
2022/06/16 03:15:54;;;;;;;10.75;3.22;;;;;;;22.40;43.96;98899.56;4471340;32;20228;-80
2022/06/16 03:18:20;;;;;;;7.78;2.85;;;;;;;22.27;44.37;98896.44;4483655;32;20110;-80
2022/06/16 03:20:46;;;;;;;9.50;3.42;;;;;;;22.44;44.05;98900.09;4486983;32;20104;-79
2022/06/16 03:23:12;;;;;;;8.10;3.20;;;;;;;22.53;43.74;98905.38;4472718;32;20139;-79
2022/06/16 03:25:38;;;;;;;7.60;2.92;;;;;;;22.59;43.87;98903.91;4486903;32;20100;-80
2022/06/16 03:28:04;;;;;;;8.25;3.12;;;;;;;22.61;43.89;98895.69;4472549;32;20096;-78
2022/06/16 03:30:30;;;;;;;9.43;3.15;;;;;;;22.71;43.57;98899.12;4472676;32;20103;-79
2022/06/16 03:32:55;;;;;;;8.20;2.92;;;;;;;22.67;43.62;98897.75;4486809;32;20112;-79
2022/06/16 03:35:20;;;;;;;7.47;2.83;;;;;;;22.73;43.51;98900.62;4486809;32;20131;-79
2022/06/16 03:37:46;;;;;;;7.93;3.00;;;;;;;22.80;43.51;98906.22;4486748;32;20060;-79
2022/06/16 03:40:13;;;;;;;8.35;2.95;;;;;;;22.93;43.30;98901.25;4486768;32;20130;-79
2022/06/16 03:42:39;;;;;;;7.82;2.72;;;;;;;23.03;43.28;98897.66;4486769;32;20092;-79
2022/06/16 03:45:05;;;;;;;9.38;3.10;;;;;;;23.16;43.35;98900.75;4486677;32;20570;-79
2022/06/16 03:47:31;;;;;;;11.50;2.90;;;;;;;23.23;43.75;98899.06;4486835;32;20095;-79
2022/06/16 03:49:56;;;;;;;10.10;3.20;;;;;;;23.32;43.58;98895.41;4486684;32;20456;-79
2022/06/16 03:52:21;;;;;;;18.05;3.80;;;;;;;23.46;43.20;98899.31;4472423;32;20101;-79
2022/06/16 03:54:47;;;;;;;13.75;3.67;;;;;;;23.56;43.50;98896.47;4486646;32;20157;-79
2022/06/16 03:57:12;;;;;;;10.40;3.67;;;;;;;23.65;43.52;98903.56;4472299;32;20076;-79
2022/06/16 03:59:38;;;;;;;10.23;3.33;;;;;;;23.81;43.12;98900.09;4472141;32;20106;-79
2022/06/16 04:02:04;;;;;;;9.38;3.17;;;;;;;23.89;43.08;98904.66;4486517;32;20345;-79
2022/06/16 04:04:29;;;;;;;28.67;5.20;;;;;;;23.97;42.98;98906.50;4486548;32;20494;-79
2022/06/16 04:06:55;;;;;;;9.77;3.30;;;;;;;24.04;42.90;98912.91;4472328;32;20140;-80
2022/06/16 04:09:20;;;;;;;8.95;3.33;;;;;;;24.09;42.61;98913.25;4486396;32;20348;-79
2022/06/16 04:11:45;;;;;;;10.23;3.20;;;;;;;24.14;42.24;98909.06;4471929;32;20131;-79
2022/06/16 04:14:13;;;;;;;11.50;3.30;;;;;;;24.28;41.80;98912.06;4486567;32;20149;-79
2022/06/16 04:16:48;;;;;;;14.80;3.37;;;;;;;24.33;41.74;98915.94;4472242;32;20108;-79
2022/06/16 04:19:16;;;;;;;8.50;3.28;;;;;;;24.31;41.74;98909.88;4472548;32;20534;-79
2022/06/16 04:21:44;;;;;;;9.40;3.20;;;;;;;24.40;41.32;98921.50;4472234;32;20127;-79
2022/06/16 04:24:10;;;;;;;7.68;3.72;;;;;;;24.54;40.64;98917.31;4472147;32;20130;-79
2022/06/16 04:26:38;;;;;;;7.93;2.75;;;;;;;24.71;39.98;98913.56;4471955;32;20428;-79
2022/06/16 04:29:04;;;;;;;9.38;3.47;;;;;;;24.77;39.90;98912.06;4486535;32;20153;-80
2022/06/16 04:31:31;;;;;;;8.60;2.80;;;;;;;24.92;39.55;98918.41;4472228;32;20176;-80
2022/06/16 04:33:57;;;;;;;7.97;2.92;;;;;;;24.98;39.27;98919.56;4486339;32;20104;-80
2022/06/16 04:36:23;;;;;;;8.02;3.17;;;;;;;25.06;39.18;98918.72;4472089;32;20080;-80
2022/06/16 04:38:48;;;;;;;8.13;3.10;;;;;;;25.21;38.93;98919.66;4486368;32;20398;-79
2022/06/16 04:41:15;;;;;;;9.63;3.85;;;;;;;25.29;38.40;98913.44;4472038;32;20119;-79
2022/06/16 04:43:41;;;;;;;11.43;3.67;;;;;;;25.41;38.21;98919.28;4472176;32;20100;-79
2022/06/16 04:46:08;;;;;;;11.18;3.28;;;;;;;25.47;38.02;98919.41;4471946;32;20141;-79
2022/06/16 04:48:33;;;;;;;11.57;3.12;;;;;;;25.60;37.34;98921.53;4486311;32;20197;-79
2022/06/16 04:51:00;;;;;;;9.07;3.58;;;;;;;25.62;37.44;98922.19;4471686;32;20159;-79
2022/06/16 04:53:26;;;;;;;10.30;3.00;;;;;;;25.72;37.27;98921.97;4485836;32;20100;-78
2022/06/16 04:56:00;;;;;;;10.35;3.53;;;;;;;25.88;36.93;98924.59;4471601;32;20110;-79
2022/06/16 04:58:27;;;;;;;9.43;3.33;;;;;;;26.01;36.46;98915.06;4471518;32;20121;-79
2022/06/16 05:00:53;;;;;;;10.98;3.70;;;;;;;26.09;36.21;98915.84;4471520;32;20170;-79
2022/06/16 05:03:20;;;;;;;9.27;3.42;;;;;;;26.23;35.92;98919.63;4485666;32;20122;-79
2022/06/16 05:05:46;;;;;;;11.32;3.37;;;;;;;26.35;35.67;98917.34;4458364;32;20180;-79
2022/06/16 05:08:13;;;;;;;8.32;3.03;;;;;;;26.53;35.07;98917.00;4485600;32;20092;-79
2022/06/16 05:10:38;;;;;;;10.23;2.92;;;;;;;26.65;34.20;98917.41;4471406;32;20116;-79
2022/06/16 05:13:03;;;;;;;8.88;3.35;;;;;;;26.64;34.39;98922.00;4485313;31;20101;-79
2022/06/16 05:15:29;;;;;;;8.02;2.80;;;;;;;26.78;34.08;98924.91;4484466;32;20081;-79
2022/06/16 05:17:54;;;;;;;8.68;2.70;;;;;;;26.82;33.83;98916.22;4485477;31;20375;-79
2022/06/16 05:20:21;;;;;;;16.17;3.15;;;;;;;26.94;33.28;98916.59;4485810;31;20088;-79
2022/06/16 05:22:46;;;;;;;7.03;2.75;;;;;;;26.99;33.26;98908.78;4486483;31;20428;-80
2022/06/16 05:25:12;;;;;;;11.40;3.00;;;;;;;27.01;33.14;98916.72;4488149;32;20149;-80
2022/06/16 05:27:37;;;;;;;10.73;3.83;;;;;;;27.11;32.86;98919.13;4486859;32;20112;-80
2022/06/16 05:30:04;;;;;;;10.57;3.05;;;;;;;27.23;32.66;98920.34;4487963;31;20104;-80
2022/06/16 05:32:29;;;;;;;7.80;2.53;;;;;;;27.30;32.57;98912.34;4486841;32;20538;-80
2022/06/16 05:34:55;;;;;;;16.20;3.17;;;;;;;27.28;32.09;98919.81;4488009;31;20107;-79
2022/06/16 05:37:20;;;;;;;6.28;2.62;;;;;;;27.35;32.30;98918.00;4486873;32;20432;-79
2022/06/16 05:39:47;;;;;;;10.82;3.00;;;;;;;27.35;32.38;98918.00;4488027;32;20477;-80
2022/06/16 05:42:13;;;;;;;11.85;3.28;;;;;;;27.30;32.19;98913.19;4486763;32;20152;-79
2022/06/16 05:44:38;;;;;;;11.40;3.00;;;;;;;27.37;32.32;98905.13;4488075;31;20092;-79
2022/06/16 05:47:05;;;;;;;8.38;2.85;;;;;;;27.36;32.51;98914.28;4500885;31;20422;-80
2022/06/16 05:49:30;;;;;;;13.70;3.63;;;;;;;27.53;32.02;98909.50;4503670;31;20719;-79
2022/06/16 05:51:56;;;;;;;9.73;3.15;;;;;;;27.49;32.50;98906.34;4503875;31;20096;-79
2022/06/16 05:54:21;;;;;;;11.12;3.35;;;;;;;27.49;32.37;98909.06;4503543;31;20107;-79
2022/06/16 05:56:47;;;;;;;8.88;4.25;;;;;;;27.55;31.85;98912.88;4503428;31;20111;-79
2022/06/16 05:59:12;;;;;;;9.35;2.97;;;;;;;27.67;31.86;98913.22;4503439;31;20114;-79
2022/06/16 06:01:38;;;;;;;9.75;2.90;;;;;;;27.60;32.32;98911.28;4497781;31;20115;-77
2022/06/16 06:04:04;;;;;;;12.55;3.47;;;;;;;27.74;32.71;98905.97;4479275;32;20085;-79
2022/06/16 06:06:30;;;;;;;8.32;2.70;;;;;;;27.75;32.52;98913.91;4473370;32;20112;-77
2022/06/16 06:17:13;;;;;;;11.27;3.50;;;;;;;28.01;31.36;98921.53;4475106;32;20175;-80
2022/06/16 06:19:38;;;;;;;8.93;2.85;;;;;;;28.02;30.61;98915.06;4473219;32;20101;-81
2022/06/16 06:22:10;;;;;;;15.27;2.72;;;;;;;28.00;31.34;98919.84;4487611;32;20107;-81
2022/06/16 06:24:39;;;;;;;8.73;2.97;;;;;;;28.12;31.17;98912.03;4487498;32;20128;-79
2022/06/16 06:27:15;;;;;;;8.95;2.80;;;;;;;28.27;30.87;98914.66;4473261;32;20088;-81
2022/06/16 06:29:45;;;;;;;8.52;2.60;;;;;;;28.40;30.68;98913.97;4487443;32;20119;-81
2022/06/16 06:32:12;;;;;;;10.90;3.20;;;;;;;28.49;30.61;98914.62;4487317;32;20115;-83
2022/06/16 06:34:38;;;;;;;8.02;2.78;;;;;;;28.52;30.79;98912.41;4472882;32;20110;-82
2022/06/16 06:37:04;;;;;;;10.07;2.65;;;;;;;28.69;30.45;98909.41;4473000;32;20080;-83
2022/06/16 06:39:31;;;;;;;7.82;2.35;;;;;;;28.76;30.01;98911.13;4487382;32;20096;-82
2022/06/16 06:41:56;;;;;;;10.27;2.95;;;;;;;28.91;30.10;98918.31;4473287;32;20122;-81
2022/06/16 06:44:22;;;;;;;17.58;3.05;;;;;;;29.00;30.29;98919.84;4487572;32;20104;-80
2022/06/16 06:46:47;;;;;;;11.10;2.90;;;;;;;29.06;30.07;98923.63;4485578;31;20084;-83
2022/06/16 06:49:13;;;;;;;7.43;2.58;;;;;;;29.13;30.06;98919.09;4483837;31;20440;-84
2022/06/16 06:51:39;;;;;;;8.93;2.55;;;;;;;29.37;29.65;98918.59;4485795;31;20655;-85
2022/06/16 06:54:05;;;;;;;8.63;3.03;;;;;;;29.49;29.54;98912.59;4486108;31;20106;-83
2022/06/16 06:56:32;;;;;;;8.15;3.08;;;;;;;29.54;29.32;98910.09;4477292;32;20119;-84
2022/06/16 06:59:00;;;;;;;12.30;3.17;;;;;;;29.43;29.44;98906.09;4472179;32;20452;-82
2022/06/16 07:01:25;;;;;;;12.55;3.75;;;;;;;29.55;29.28;98909.91;4459804;32;20459;-83
2022/06/16 07:03:51;;;;;;;7.18;2.60;;;;;;;29.65;28.88;98908.66;4486388;31;20101;-80
2022/06/16 07:06:18;;;;;;;11.25;2.83;;;;;;;29.65;28.94;98908.66;4485425;32;20428;-80
2022/06/16 07:08:44;;;;;;;8.68;2.87;;;;;;;29.74;29.38;98911.03;4485685;32;20096;-80
2022/06/16 07:11:10;;;;;;;8.77;3.00;;;;;;;29.71;29.04;98911.41;4471230;32;20103;-80
2022/06/16 07:13:35;;;;;;;252.15;19.30;;;;;;;29.76;29.32;98918.97;4485766;32;20537;-80
2022/06/16 07:16:01;;;;;;;14.13;3.05;;;;;;;29.77;29.34;98912.50;4485486;32;20145;-80
2022/06/16 07:18:27;;;;;;;9.68;3.03;;;;;;;29.78;29.47;98908.75;4485701;32;20169;-80
2022/06/16 07:20:53;;;;;;;9.88;2.90;;;;;;;29.81;29.44;98907.50;4470771;32;20406;-80
2022/06/16 07:23:21;;;;;;;7.12;2.78;;;;;;;30.02;29.09;98903.75;4485802;32;20366;-80
2022/06/16 07:25:48;;;;;;;7.40;2.50;;;;;;;30.12;29.29;98901.50;4485637;32;20097;-80
2022/06/16 07:28:14;;;;;;;14.05;3.47;;;;;;;30.12;29.59;98905.03;4471375;32;20132;-80
2022/06/16 07:30:41;;;;;;;17.62;3.65;;;;;;;30.18;28.80;98898.78;4485544;32;20091;-80
2022/06/16 07:33:06;;;;;;;20.70;4.57;;;;;;;30.28;28.62;98901.06;4485508;32;20158;-81
2022/06/16 07:35:32;;;;;;;24.87;4.25;;;;;;;30.35;27.96;98903.84;4485131;32;20111;-80
2022/06/16 07:37:57;;;;;;;24.90;4.78;;;;;;;30.39;28.01;98907.81;4470966;32;20147;-80
2022/06/16 07:40:24;;;;;;;22.27;3.72;;;;;;;30.44;27.88;98902.56;4485441;32;20114;-80
2022/06/16 07:42:54;;;;;;;12.88;2.65;;;;;;;30.51;27.79;98899.84;4485330;32;20163;-79
2022/06/16 07:45:20;;;;;;;470.98;67.07;;;;;;;30.54;27.35;98904.88;4484545;32;20092;-81
2022/06/16 07:47:45;;;;;;;12.63;3.00;;;;;;;30.25;27.44;98906.09;4485171;32;20452;-80
2022/06/16 07:50:12;;;;;;;6.87;2.65;;;;;;;30.53;27.03;98903.19;4485287;32;20367;-80
2022/06/16 07:52:37;;;;;;;14.23;3.50;;;;;;;30.55;27.20;98904.66;4485204;32;20116;-81
2022/06/16 07:55:04;;;;;;;7.50;1.80;;;;;;;30.60;27.03;98908.63;4470872;32;20145;-80
2022/06/16 07:57:32;;;;;;;9.02;2.55;;;;;;;30.74;25.36;98896.69;4484919;32;20108;-80
2022/06/16 07:59:58;;;;;;;10.98;2.60;;;;;;;30.77;24.75;98890.81;4471263;32;20128;-78
2022/06/16 08:02:25;;;;;;;13.30;2.50;;;;;;;30.96;25.23;98900.88;4470554;32;20088;-79
2022/06/16 08:04:50;;;;;;;9.70;2.12;;;;;;;30.86;24.39;98897.72;4485128;32;20600;-79
2022/06/16 08:07:17;;;;;;;8.18;2.22;;;;;;;30.83;24.41;98894.56;4484904;32;20092;-78
2022/06/16 08:09:42;;;;;;;11.40;2.28;;;;;;;30.97;23.94;98888.09;4485190;32;20212;-79
2022/06/16 08:12:09;;;;;;;6.72;1.90;;;;;;;31.01;24.94;98888.50;4484883;32;20120;-77
2022/06/16 08:14:37;;;;;;;10.30;2.20;;;;;;;31.11;23.38;98889.72;4484783;32;20077;-78
2022/06/16 08:17:07;;;;;;;5.97;1.65;;;;;;;31.21;22.69;98889.25;4484591;32;20108;-78
2022/06/16 08:19:33;;;;;;;8.18;2.08;;;;;;;31.33;22.98;98878.53;4485114;32;20096;-78
2022/06/16 08:21:58;;;;;;;7.95;2.30;;;;;;;31.38;22.80;98889.63;4470529;32;20131;-78
2022/06/16 08:24:24;;;;;;;6.80;2.00;;;;;;;31.34;23.63;98896.56;4484608;32;20148;-78
2022/06/16 08:26:50;;;;;;;8.40;2.58;;;;;;;31.38;24.23;98900.50;4470527;32;20104;-78
2022/06/16 08:29:17;;;;;;;8.75;2.80;;;;;;;31.41;24.76;98904.69;4484714;32;20514;-78
2022/06/16 08:31:43;;;;;;;8.80;2.78;;;;;;;31.51;24.93;98902.38;4470542;32;20159;-78
2022/06/16 08:34:08;;;;;;;9.63;2.80;;;;;;;31.39;25.29;98901.34;4470238;32;20119;-78
2022/06/16 08:36:34;;;;;;;7.55;2.30;;;;;;;31.31;25.16;98899.69;4484897;32;20472;-78
2022/06/16 08:39:00;;;;;;;9.60;2.58;;;;;;;31.28;24.74;98906.41;4484790;32;20123;-78
2022/06/16 08:41:47;;;;;;;16.50;3.20;;;;;;;31.22;24.72;98907.28;4484852;32;20085;-77
2022/06/16 08:44:19;;;;;;;23.12;3.42;;;;;;;31.26;24.05;98910.41;4484384;32;20080;-78
2022/06/16 08:46:54;;;;;;;11.60;2.37;;;;;;;31.31;24.43;98907.88;4470273;32;20087;-77
2022/06/16 08:49:29;;;;;;;121.10;17.73;;;;;;;31.32;23.50;98904.09;4470017;32;20092;-77
2022/06/16 08:52:31;;;;;;;10.02;2.40;;;;;;;31.28;23.80;98903.69;4484546;32;20451;-78
2022/06/16 08:55:38;;;;;;;6.32;2.08;;;;;;;31.31;23.64;98905.13;4483714;32;20103;-78
2022/06/16 08:58:34;;;;;;;19.58;4.62;;;;;;;31.28;23.39;98897.44;4469378;32;20491;-78
2022/06/16 09:01:13;;;;;;;9.10;2.30;;;;;;;31.16;22.47;98908.16;4471972;32;20138;-79
2022/06/16 09:03:40;;;;;;;7.72;2.22;;;;;;;31.10;22.80;98918.00;4486484;32;20125;-80
2022/06/16 09:06:06;;;;;;;6.93;2.05;;;;;;;31.12;22.90;98907.72;4458813;32;20084;-80
2022/06/16 09:08:50;;;;;;;4.93;2.15;;;;;;;31.24;23.64;98898.91;4486572;32;20681;-80
2022/06/16 09:11:34;;;;;;;19.08;3.12;;;;;;;31.31;23.36;98910.59;4486266;32;20092;-80
2022/06/16 09:14:21;;;;;;;8.75;2.08;;;;;;;31.35;23.19;98909.09;4486415;32;20432;-80
2022/06/16 09:16:49;;;;;;;14.55;3.00;;;;;;;31.38;23.25;98908.69;4486152;32;20435;-80
2022/06/16 09:19:27;;;;;;;7.60;2.53;;;;;;;31.30;22.63;98898.88;4486287;32;20093;-80
2022/06/16 09:22:06;;;;;;;7.95;2.22;;;;;;;31.29;22.38;98899.06;4486377;32;20084;-80
2022/06/16 09:24:38;;;;;;;6.43;2.08;;;;;;;31.28;22.06;98898.25;4472137;32;20072;-80
2022/06/16 09:27:25;;;;;;;15.60;2.60;;;;;;;31.24;22.48;98893.47;4471705;32;20416;-80
2022/06/16 09:30:13;;;;;;;9.20;2.53;;;;;;;31.09;22.74;98885.56;4472103;32;20172;-81
2022/06/16 09:32:45;;;;;;;7.60;2.33;;;;;;;31.13;22.45;98882.19;4472001;32;20112;-80
2022/06/16 09:35:41;;;;;;;7.45;2.22;;;;;;;31.16;22.75;98889.09;4486193;32;20092;-80
2022/06/16 09:38:08;;;;;;;8.40;2.28;;;;;;;31.05;22.94;98887.03;4393887;32;20201;-80
2022/06/16 09:40:54;;;;;;;9.88;2.45;;;;;;;31.09;23.30;98893.72;4393863;32;20105;-80
2022/06/16 09:43:29;;;;;;;10.02;2.25;;;;;;;31.11;23.09;98886.16;4406444;32;20113;-81
2022/06/16 09:46:06;;;;;;;9.30;2.20;;;;;;;30.99;22.66;98877.84;4406545;32;20090;-81
2022/06/16 09:48:33;;;;;;;8.57;2.53;;;;;;;31.00;22.56;98873.22;4393938;32;20086;-81
2022/06/16 09:51:05;;;;;;;;;;;;;;;30.80;23.47;98874.09;4406713;32;20102;-81
2022/06/16 09:53:42;;;;;;;6.32;2.05;;;;;;;30.87;23.03;98874.91;4406227;32;20381;-80
2022/06/16 09:56:20;;;;;;;27.25;3.55;;;;;;;30.83;22.93;98878.25;4406422;32;20130;-82
2022/06/16 09:59:08;;;;;;;13.25;2.53;;;;;;;30.81;22.38;98878.50;4406331;32;20145;-81
2022/06/16 10:01:36;;;;;;;;;;;;;;;30.71;22.70;98869.91;4406759;32;20164;-81
2022/06/16 10:04:06;;;;;;;14.90;3.10;;;;;;;30.86;22.37;98870.50;4393638;32;20274;-82
2022/06/16 10:06:57;;;;;;;22.50;4.22;;;;;;;30.81;22.87;98873.06;4406349;32;20094;-81
2022/06/16 10:09:44;;;;;;;7.65;1.95;;;;;;;30.66;22.65;98884.16;4406126;32;20102;-81
2022/06/16 10:12:31;;;;;;;10.88;2.17;;;;;;;30.75;22.51;98874.72;4406051;32;20118;-81
2022/06/16 10:15:28;;;;;;;6.50;2.25;;;;;;;30.67;22.45;98874.09;4447649;32;20117;-81
2022/06/16 10:17:54;;;;;;;6.18;1.98;;;;;;;30.73;22.05;98874.13;4479058;31;20104;-81
2022/06/16 10:20:21;;;;;;;15.00;2.97;;;;;;;30.58;22.38;98871.63;4487335;31;20133;-80
2022/06/16 10:22:48;;;;;;;;;;;;;;;30.61;23.57;98873.06;4486292;31;20445;-80
2022/06/16 10:25:18;;;;;;;8.40;2.28;;;;;;;30.64;23.63;98863.69;4471986;31;19999;-80
2022/06/16 10:27:49;;;;;;;18.33;3.10;;;;;;;30.59;23.28;98864.28;4487410;31;20107;-81
2022/06/16 10:30:26;;;;;;;9.38;2.65;;;;;;;30.66;22.56;98864.28;4487314;31;20117;-81
2022/06/16 10:33:24;;;;;;;10.20;2.53;;;;;;;30.66;22.73;98867.84;4501546;31;20099;-81
2022/06/16 10:35:57;;;;;;;11.85;2.92;;;;;;;30.64;23.15;98858.25;4501747;31;20100;-81
2022/06/16 10:38:32;;;;;;;7.05;2.45;;;;;;;30.63;23.01;98862.00;4501467;31;20104;-80
2022/06/16 10:40:59;;;;;;;7.00;2.35;;;;;;;30.71;23.35;98865.34;4487337;31;20095;-81
2022/06/16 10:43:25;;;;;;;7.25;2.00;;;;;;;30.67;23.34;98868.66;4486898;31;20182;-80
2022/06/16 10:46:13;;;;;;;8.75;2.40;;;;;;;30.73;22.78;98873.25;4501835;31;20126;-80
2022/06/16 10:48:44;;;;;;;18.10;3.75;;;;;;;30.77;22.57;98867.19;4486962;31;20155;-81
2022/06/16 10:51:21;;;;;;;21.20;3.83;;;;;;;30.85;22.58;98863.41;4473836;31;20128;-81
2022/06/16 10:54:30;;;;;;;12.45;2.78;;;;;;;30.89;22.26;98866.53;4501271;31;20147;-80
2022/06/16 10:57:18;;;;;;;10.90;2.50;;;;;;;30.71;22.65;98859.91;4421144;32;20307;-80
2022/06/16 10:59:57;;;;;;;7.35;2.37;;;;;;;30.85;22.45;98862.56;4421116;32;20119;-80
2022/06/16 11:02:26;;;;;;;6.62;2.10;;;;;;;30.91;22.30;98859.03;4421333;32;20099;-80
2022/06/16 11:05:02;;;;;;;5.95;2.25;;;;;;;30.85;21.61;98849.81;4420929;32;20148;-80
2022/06/16 11:07:34;;;;;;;8.32;2.10;;;;;;;30.92;22.43;98855.25;4421363;32;20133;-79
2022/06/16 11:10:15;;;;;;;7.05;2.50;;;;;;;30.99;22.29;98845.19;4420987;32;20093;-79
2022/06/16 11:12:47;;;;;;;10.02;2.60;;;;;;;30.76;21.91;98837.50;4408528;32;20113;-79
2022/06/16 11:15:24;;;;;;;7.05;1.90;;;;;;;30.85;22.42;98840.78;4420699;32;20493;-78
2022/06/16 11:17:54;;;;;;;7.93;1.73;;;;;;;30.59;22.24;98839.81;4408335;32;20113;-78
2022/06/16 11:20:19;;;;;;;8.07;2.00;;;;;;;30.74;22.06;98834.97;4407051;32;20098;-79
2022/06/16 11:22:46;;;;;;;6.68;2.15;;;;;;;30.76;22.52;98835.59;4421088;32;20132;-78
2022/06/16 11:25:32;;;;;;;11.63;2.22;;;;;;;30.87;22.13;98825.94;4408362;32;20136;-78
2022/06/16 11:28:14;;;;;;;7.85;2.15;;;;;;;30.92;21.62;98825.31;4421185;32;20101;-78
2022/06/16 11:30:54;;;;;;;5.93;2.00;;;;;;;30.94;21.22;98815.06;4436434;32;20438;-78
2022/06/16 11:36:37;;;;;;;8.98;2.45;;;;;;;30.94;21.60;98809.63;4473176;32;20127;-78
2022/06/16 11:39:02;;;;;;;6.15;2.15;;;;;;;30.75;21.58;98808.59;4405648;32;20113;-77
2022/06/16 11:41:29;;;;;;;9.20;2.00;;;;;;;30.72;21.19;98819.94;4405565;32;20421;-77
2022/06/16 11:43:55;;;;;;;5.43;2.00;;;;;;;30.70;21.88;98814.69;4393047;32;20101;-77
2022/06/16 11:46:43;;;;;;;6.87;2.28;;;;;;;30.80;21.93;98822.41;4405474;32;20169;-77
2022/06/16 11:49:39;;;;;;;10.07;2.40;;;;;;;30.84;22.00;98814.66;4405808;32;20110;-77
2022/06/16 11:52:23;;;;;;;13.18;2.70;;;;;;;30.83;21.50;98802.09;4383496;32;20441;-77
2022/06/16 11:55:19;;;;;;;8.90;2.00;;;;;;;30.70;21.97;98795.66;4405506;32;20094;-77
2022/06/16 11:57:57;;;;;;;10.07;2.00;;;;;;;30.75;21.65;98792.28;4405448;32;20114;-77
2022/06/16 12:00:27;;;;;;;;;;;;;;;30.86;21.54;98791.63;4406144;32;20110;-77
2022/06/16 12:03:07;;;;;;;7.53;2.17;;;;;;;30.85;21.80;98776.38;4392705;32;20104;-77
2022/06/16 12:05:47;;;;;;;6.90;2.15;;;;;;;30.85;21.47;98781.81;4405634;32;20519;-77
2022/06/16 12:08:27;;;;;;;51.03;8.15;;;;;;;30.77;22.01;98777.44;4405200;32;20086;-78